Terminal Aerodrome Forecast
Issued by NWS

Home | Current Version | Previous Version | Text Only | Print | Product List | Glossary On
Versions: 1 2 3 4 5 6 7 8 9 10 11 12 13 14 15
000
FTAK31 PAJN 290500
TAFAYA
TAF
PAYA 290540Z 2906/3006 10005KT P6SM -SHRA BKN035 OVC050
      TEMPO 2906/2910 VRB05G15KT 6SM -SHRA BR BKN025 OVC035
     FM291000 13012KT P6SM -SHRA SCT015 BKN035 BKN050
     FM291700 09012KT 6SM -SHRA SCT015 OVC025
      AMD LTD TO CLD VIS AND WIND 2906/2910=

USA.gov is the U.S. government's official web portal to all federal, state and local government web resources and services.